createdAt,value
2022-10-24T00:02:19.278Z,41.50
2022-10-24T00:04:46.444Z,44.70
2022-10-24T00:07:13.381Z,41.17
2022-10-24T00:09:40.299Z,37.20
2022-10-24T00:12:08.372Z,36.90
2022-10-24T00:14:36.754Z,35.70
2022-10-24T00:17:12.940Z,32.70
2022-10-24T00:19:40.738Z,34.77
2022-10-24T00:22:24.416Z,31.30
2022-10-24T00:25:23.581Z,30.80
2022-10-24T00:27:51.041Z,28.43
2022-10-24T00:30:21.599Z,28.83
2022-10-24T00:33:03.873Z,29.00
2022-10-24T00:35:31.192Z,27.83
2022-10-24T00:38:01.355Z,27.63
2022-10-24T00:40:47.071Z,27.80
2022-10-24T00:43:28.112Z,29.37
2022-10-24T00:46:02.770Z,28.77
2022-10-24T00:48:50.178Z,26.77
2022-10-24T00:51:27.227Z,29.57
2022-10-24T00:53:58.832Z,27.83
2022-10-24T00:56:33.832Z,29.20
2022-10-24T00:59:09.294Z,27.43
2022-10-24T01:08:36.405Z,32.50
2022-10-24T01:11:51.552Z,32.03
2022-10-24T01:19:00.562Z,34.80
2022-10-24T01:22:11.103Z,34.57
2022-10-24T01:25:23.586Z,35.47
2022-10-24T01:29:04.773Z,34.43
2022-10-24T01:33:17.389Z,33.17
2022-10-24T01:35:53.780Z,36.27
2022-10-24T01:38:53.414Z,34.13
2022-10-24T01:41:31.169Z,34.33
2022-10-24T01:44:36.549Z,33.60
2022-10-24T01:47:36.255Z,35.50
2022-10-24T01:50:33.669Z,36.50
2022-10-24T01:53:05.072Z,37.47
2022-10-24T01:55:36.481Z,38.13
2022-10-24T01:58:03.470Z,38.50
2022-10-24T02:00:30.987Z,36.47
2022-10-24T02:03:04.867Z,39.50
2022-10-24T02:05:43.150Z,35.93
2022-10-24T02:08:15.183Z,36.63
2022-10-24T02:10:50.616Z,35.80
2022-10-24T02:28:12.654Z,36.70
2022-10-24T02:49:56.534Z,35.27
2022-10-24T02:52:24.283Z,38.80
2022-10-24T02:55:25.036Z,38.73
2022-10-24T02:58:32.801Z,38.37
2022-10-24T03:01:18.335Z,36.47
2022-10-24T03:03:45.704Z,37.50
2022-10-24T03:06:25.214Z,38.27
2022-10-24T03:09:50.662Z,36.30
2022-10-24T03:15:05.307Z,41.13
2022-10-24T03:17:35.310Z,38.30
2022-10-24T03:20:02.279Z,37.10
2022-10-24T03:22:30.752Z,42.03
2022-10-24T03:25:01.793Z,38.97
2022-10-24T03:27:28.969Z,38.40
2022-10-24T03:29:58.881Z,38.47
2022-10-24T03:34:53.807Z,39.23
2022-10-24T03:37:20.820Z,38.43
2022-10-24T03:39:48.385Z,40.93
2022-10-24T03:42:15.428Z,40.37
2022-10-24T03:44:42.403Z,36.63
2022-10-24T03:47:09.721Z,43.87
2022-10-24T03:49:36.706Z,42.40
2022-10-24T03:52:04.097Z,42.17
2022-10-24T03:54:31.589Z,42.53
2022-10-24T03:56:58.476Z,42.63
2022-10-24T03:59:25.459Z,41.80
2022-10-24T04:01:52.742Z,42.53
2022-10-24T04:04:19.746Z,40.03
2022-10-24T04:06:46.935Z,40.53
2022-10-24T04:09:17.149Z,38.63
2022-10-24T04:11:53.669Z,40.77
2022-10-24T04:14:26.513Z,36.03
2022-10-24T04:20:04.059Z,35.47
2022-10-24T04:22:52.132Z,41.20
2022-10-24T04:25:22.328Z,37.30
2022-10-24T04:28:01.894Z,37.63
2022-10-24T04:30:49.970Z,38.43
2022-10-24T04:33:16.965Z,38.27
2022-10-24T04:35:48.293Z,37.23
2022-10-24T04:38:33.597Z,36.57
2022-10-24T04:41:07.333Z,40.33
2022-10-24T04:43:49.247Z,36.40
2022-10-24T04:46:16.134Z,37.63
2022-10-24T04:48:42.981Z,35.23
2022-10-24T04:51:18.672Z,36.73
2022-10-24T05:18:26.877Z,30.57
2022-10-24T05:20:57.429Z,29.73
2022-10-24T05:23:24.490Z,34.17
2022-10-24T05:25:51.523Z,34.27
2022-10-24T05:28:18.583Z,34.17
2022-10-24T05:30:45.879Z,34.57
2022-10-24T05:33:13.366Z,33.40
2022-10-24T05:35:41.747Z,33.23
2022-10-24T05:38:09.461Z,40.93
2022-10-24T05:40:36.322Z,35.83
2022-10-24T05:43:03.853Z,37.40
2022-10-24T05:45:30.689Z,38.00
2022-10-24T05:47:58.311Z,38.23
2022-10-24T05:50:27.070Z,37.80
2022-10-24T05:52:54.237Z,36.63
2022-10-24T05:55:21.281Z,40.53
2022-10-24T05:57:48.485Z,39.43
2022-10-24T06:00:16.839Z,39.53
2022-10-24T06:02:44.237Z,41.90
2022-10-24T06:05:13.975Z,39.00
2022-10-24T06:07:42.253Z,37.27
2022-10-24T06:10:18.619Z,34.77
2022-10-24T06:12:45.715Z,37.97
2022-10-24T06:15:13.798Z,52.40
2022-10-24T06:17:40.828Z,38.47
2022-10-24T06:20:08.309Z,37.33
2022-10-24T06:22:35.227Z,36.53
2022-10-24T06:25:02.046Z,39.40
2022-10-24T06:27:29.118Z,37.43
2022-10-24T06:29:55.975Z,34.53
2022-10-24T06:32:23.105Z,36.87
2022-10-24T06:34:50.822Z,39.37
2022-10-24T06:37:17.850Z,34.37
2022-10-24T06:39:44.717Z,40.60
2022-10-24T06:42:11.548Z,37.60
2022-10-24T06:44:38.716Z,37.10
2022-10-24T06:47:06.288Z,37.87
2022-10-24T06:49:33.443Z,38.83
2022-10-24T06:52:00.323Z,37.13
2022-10-24T06:54:30.101Z,36.37
2022-10-24T06:56:58.171Z,36.20
2022-10-24T06:59:28.049Z,36.40
2022-10-24T07:01:55.554Z,36.20
2022-10-24T07:04:22.726Z,35.03
2022-10-24T07:06:49.508Z,34.93
2022-10-24T07:09:17.228Z,35.13
2022-10-24T07:11:45.166Z,36.60
2022-10-24T07:14:12.554Z,35.63
2022-10-24T07:16:49.191Z,37.07
2022-10-24T07:19:16.020Z,32.30
2022-10-24T07:21:43.084Z,33.73
2022-10-24T07:24:12.850Z,33.00
2022-10-24T07:26:39.876Z,32.60
2022-10-24T07:29:06.777Z,31.23
2022-10-24T07:31:35.944Z,31.63
2022-10-24T07:34:07.314Z,32.47
2022-10-24T07:36:34.693Z,29.23
2022-10-24T07:39:02.036Z,31.43
2022-10-24T07:41:30.666Z,31.50
2022-10-24T07:43:59.361Z,33.00
2022-10-24T07:46:27.340Z,31.57
2022-10-24T07:48:54.586Z,30.17
2022-10-24T07:51:22.144Z,30.53
2022-10-24T07:53:49.490Z,29.80
2022-10-24T07:56:28.173Z,31.63
2022-10-24T07:58:56.676Z,31.40
2022-10-24T08:01:32.024Z,30.37
2022-10-24T08:03:58.955Z,32.23
2022-10-24T08:06:30.135Z,30.53
2022-10-24T08:08:57.090Z,27.90
2022-10-24T08:11:28.749Z,31.93
2022-10-24T08:13:59.720Z,29.67
2022-10-24T08:16:38.748Z,30.13
2022-10-24T08:19:08.790Z,32.73
2022-10-24T08:21:43.387Z,32.30
2022-10-24T08:24:10.462Z,31.13
2022-10-24T08:26:40.452Z,29.47
2022-10-24T08:29:11.797Z,29.77
2022-10-24T08:31:39.210Z,31.33
2022-10-24T08:34:06.200Z,33.30
2022-10-24T08:36:35.763Z,29.97
2022-10-24T08:39:06.569Z,29.70
2022-10-24T08:41:39.906Z,28.13
2022-10-24T08:44:22.154Z,27.10
2022-10-24T08:47:04.431Z,29.83
2022-10-24T08:49:44.193Z,29.47
2022-10-24T08:52:53.835Z,28.77
2022-10-24T09:02:39.842Z,26.17
2022-10-24T09:05:18.885Z,30.20
2022-10-24T09:07:48.213Z,27.50
2022-10-24T09:10:38.700Z,28.10
2022-10-24T09:13:14.630Z,24.80
2022-10-24T09:15:44.660Z,22.60
2022-10-24T09:18:25.541Z,27.03
2022-10-24T09:20:55.762Z,26.73
2022-10-24T09:23:32.710Z,26.33
2022-10-24T09:26:47.262Z,24.77
2022-10-24T09:29:23.791Z,25.73
2022-10-24T09:31:50.698Z,22.07
2022-10-24T09:34:20.383Z,23.53
2022-10-24T09:37:23.500Z,24.73
2022-10-24T09:40:36.552Z,22.73
2022-10-24T09:43:23.055Z,21.83
2022-10-24T09:46:06.545Z,20.27
2022-10-24T09:52:07.054Z,23.70
2022-10-24T09:52:20.900Z,23.87
2022-10-24T09:55:03.084Z,21.63
2022-10-24T09:57:39.351Z,22.07
2022-10-24T10:00:16.940Z,22.57
2022-10-24T10:03:06.634Z,21.23
2022-10-24T10:05:54.580Z,20.53
2022-10-24T10:08:35.311Z,22.87
2022-10-24T10:11:08.988Z,20.93
2022-10-24T10:14:11.292Z,21.37
2022-10-24T10:16:41.018Z,20.07
2022-10-24T10:19:39.111Z,20.27
2022-10-24T10:22:32.251Z,19.63
2022-10-24T10:25:00.555Z,21.83
2022-10-24T10:27:34.752Z,20.13
2022-10-24T10:30:15.001Z,17.73
2022-10-24T10:33:41.069Z,18.90
2022-10-24T10:36:58.998Z,17.93
2022-10-24T10:40:07.386Z,17.30
2022-10-24T10:42:49.597Z,17.17
2022-10-24T10:45:19.931Z,18.90
2022-10-24T10:48:01.901Z,18.70
2022-10-24T10:50:34.899Z,19.87
2022-10-24T10:53:31.880Z,16.93
2022-10-24T10:55:58.629Z,15.73
2022-10-24T10:58:33.076Z,17.33
2022-10-24T11:01:10.914Z,15.67
2022-10-24T11:04:00.627Z,18.77
2022-10-24T11:06:46.275Z,16.87
2022-10-24T11:09:49.339Z,17.83
2022-10-24T11:12:36.869Z,14.47
2022-10-24T11:15:07.747Z,15.57
2022-10-24T11:17:37.413Z,15.10
2022-10-24T11:20:16.261Z,15.70
2022-10-24T11:22:49.796Z,17.67
2022-10-24T11:25:31.958Z,13.80
2022-10-24T11:28:12.160Z,15.07
2022-10-24T11:30:48.490Z,15.30
2022-10-24T11:33:20.931Z,18.37
2022-10-24T11:36:13.228Z,14.70
2022-10-24T11:39:35.111Z,14.83
2022-10-24T11:42:17.560Z,18.90
2022-10-24T11:45:10.469Z,12.70
2022-10-24T12:11:31.929Z,14.27
2022-10-24T12:14:19.048Z,12.23
2022-10-24T12:17:23.781Z,11.87
2022-10-24T12:19:52.003Z,10.57
2022-10-24T12:25:51.384Z,12.60
2022-10-24T12:28:26.013Z,13.60
2022-10-24T12:31:29.363Z,10.35
2022-10-24T12:34:23.006Z,12.65
2022-10-24T12:37:09.533Z,11.40
2022-10-24T12:39:47.356Z,10.98
2022-10-24T12:42:37.654Z,8.90
2022-10-24T12:59:32.236Z,10.80
2022-10-24T13:08:52.372Z,13.13
2022-10-24T13:11:54.498Z,9.70
2022-10-24T13:22:58.042Z,10.20
2022-10-24T13:28:43.268Z,10.03
2022-10-24T13:33:54.299Z,17.40
2022-10-24T13:36:42.436Z,9.80
2022-10-24T13:39:28.257Z,10.07
2022-10-24T13:45:52.409Z,10.53
2022-10-24T13:48:21.582Z,8.80
2022-10-24T13:50:54.116Z,9.37
2022-10-24T13:53:57.073Z,8.97
2022-10-24T13:56:27.773Z,10.83
2022-10-24T13:58:54.746Z,9.97
2022-10-24T14:01:44.745Z,13.27
2022-10-24T14:04:12.224Z,11.43
2022-10-24T14:06:39.062Z,11.97
2022-10-24T14:09:10.481Z,9.33
2022-10-24T14:11:42.388Z,10.00
2022-10-24T14:14:30.342Z,9.77
2022-10-24T14:17:33.776Z,11.73
2022-10-24T14:20:19.643Z,10.47
2022-10-24T14:22:46.961Z,10.03
2022-10-24T14:25:32.042Z,12.40
2022-10-24T14:28:01.991Z,12.53
2022-10-24T14:30:34.633Z,12.90
2022-10-24T14:33:24.204Z,10.30
2022-10-24T14:35:55.071Z,13.77
2022-10-24T14:38:25.771Z,13.10
2022-10-24T14:41:06.179Z,9.27
2022-10-24T14:43:34.037Z,13.17
2022-10-24T14:46:09.616Z,12.13
2022-10-24T14:48:38.026Z,11.23
2022-10-24T14:51:22.162Z,10.80
2022-10-24T14:53:50.903Z,11.53
2022-10-24T14:56:25.658Z,15.53
2022-10-24T14:58:55.416Z,12.17
2022-10-24T15:01:23.823Z,14.20
2022-10-24T15:03:55.971Z,13.20
2022-10-24T15:06:59.379Z,14.90
2022-10-24T15:09:26.615Z,10.80
2022-10-24T15:12:01.918Z,15.20
2022-10-24T15:14:35.810Z,12.30
2022-10-24T15:17:17.535Z,12.07
2022-10-24T15:19:46.141Z,17.13
2022-10-24T15:22:35.983Z,14.97
2022-10-24T15:25:18.515Z,12.77
2022-10-24T15:27:46.332Z,13.23
2022-10-24T15:30:20.318Z,13.60
2022-10-24T15:32:48.715Z,12.37
2022-10-24T15:35:16.851Z,16.30
2022-10-24T15:38:02.743Z,13.53
2022-10-24T15:40:35.873Z,14.93
2022-10-24T15:43:03.229Z,14.33
2022-10-24T15:45:30.080Z,14.23
2022-10-24T15:47:56.914Z,14.27
2022-10-24T15:50:24.374Z,14.53
2022-10-24T15:52:54.907Z,14.07
2022-10-24T15:55:25.505Z,14.20
2022-10-24T15:57:53.184Z,13.13
2022-10-24T16:00:22.103Z,12.10
2022-10-24T16:02:50.994Z,15.43
2022-10-24T16:05:24.311Z,13.57
2022-10-24T16:07:54.611Z,14.07
2022-10-24T16:10:22.925Z,14.00
2022-10-24T16:12:50.666Z,14.73
2022-10-24T16:15:29.700Z,14.90
2022-10-24T16:17:56.625Z,14.27
2022-10-24T16:20:23.701Z,15.53
2022-10-24T16:22:51.651Z,19.23
2022-10-24T16:25:25.243Z,18.63
2022-10-24T16:27:52.756Z,16.93
2022-10-24T16:30:22.107Z,13.47
2022-10-24T16:32:49.459Z,18.20
2022-10-24T16:35:21.001Z,16.73
2022-10-24T16:37:48.161Z,17.47
2022-10-24T16:40:15.722Z,17.47
2022-10-24T16:42:43.323Z,17.00
2022-10-24T16:45:11.214Z,14.33
2022-10-24T16:47:41.401Z,15.30
2022-10-24T16:50:12.641Z,15.17
2022-10-24T16:52:39.567Z,16.20
2022-10-24T16:55:06.710Z,17.63
2022-10-24T16:57:33.592Z,19.17
2022-10-24T17:00:06.483Z,16.33
2022-10-24T17:02:36.521Z,18.90
2022-10-24T17:05:03.584Z,17.13
2022-10-24T17:07:33.746Z,20.83
2022-10-24T17:10:00.764Z,16.37
2022-10-24T17:12:27.926Z,17.60
2022-10-24T17:14:54.827Z,16.97
2022-10-24T17:17:21.665Z,22.63
2022-10-24T17:19:52.297Z,20.17
2022-10-24T17:22:19.298Z,20.53
2022-10-24T17:24:46.264Z,17.70
2022-10-24T17:27:15.039Z,16.90
2022-10-24T17:29:43.800Z,17.77
2022-10-24T17:32:13.153Z,20.57
2022-10-24T17:34:42.466Z,19.27
2022-10-24T17:37:22.714Z,21.27
2022-10-24T17:40:05.750Z,18.63
2022-10-24T17:42:33.610Z,20.53
2022-10-24T17:45:00.617Z,20.90
2022-10-24T17:47:27.586Z,20.90
2022-10-24T17:49:54.592Z,18.37
2022-10-24T17:52:23.893Z,18.97
2022-10-24T17:54:51.263Z,19.60
2022-10-24T17:57:18.090Z,24.13
2022-10-24T17:59:45.759Z,22.40
2022-10-24T18:02:14.804Z,23.53
2022-10-24T18:04:43.016Z,19.83
2022-10-24T18:07:10.637Z,21.30
2022-10-24T18:09:40.349Z,18.47
2022-10-24T18:12:07.847Z,20.20
2022-10-24T18:14:39.619Z,18.57
2022-10-24T18:17:06.619Z,20.53
2022-10-24T18:19:33.585Z,25.67
2022-10-24T18:22:00.517Z,19.70
2022-10-24T18:24:40.104Z,21.67
2022-10-24T18:27:28.968Z,24.13
2022-10-24T18:34:40.799Z,21.70
2022-10-24T18:40:43.273Z,22.13
2022-10-24T18:43:19.306Z,22.47
2022-10-24T18:45:48.345Z,22.20
2022-10-24T18:52:00.538Z,22.93
2022-10-24T18:54:48.423Z,25.87
2022-10-24T18:57:37.258Z,23.67
2022-10-24T19:40:55.706Z,24.20
2022-10-24T19:46:28.809Z,28.40
2022-10-24T19:49:20.086Z,25.73
2022-10-24T19:52:27.582Z,21.70
2022-10-24T19:54:57.591Z,23.83
2022-10-24T19:57:24.469Z,22.40
2022-10-24T20:00:19.694Z,24.77
2022-10-24T20:03:08.422Z,23.83
2022-10-24T20:14:56.014Z,24.23
2022-10-24T20:27:58.258Z,28.10
2022-10-24T20:30:31.350Z,24.10
2022-10-24T20:34:40.427Z,29.47
2022-10-24T20:37:01.373Z,26.20
2022-10-24T20:51:42.592Z,26.67
2022-10-24T21:31:28.835Z,24.20
2022-10-24T21:34:19.561Z,23.13
2022-10-24T21:39:39.893Z,22.53
2022-10-24T21:48:04.170Z,25.87
2022-10-24T22:18:04.455Z,18.53
2022-10-24T22:27:22.957Z,19.73
2022-10-24T22:30:10.625Z,20.50
2022-10-24T22:38:59.350Z,19.90
2022-10-24T22:41:46.146Z,17.90
2022-10-24T22:44:38.800Z,25.07
2022-10-24T22:51:00.883Z,22.40
2022-10-24T22:54:13.646Z,22.93
2022-10-24T22:56:44.564Z,21.27
2022-10-24T22:59:44.410Z,24.83
2022-10-24T23:06:50.391Z,17.43
2022-10-24T23:09:25.976Z,20.43
2022-10-24T23:11:53.260Z,19.70
2022-10-24T23:14:20.677Z,19.07
2022-10-24T23:16:58.991Z,16.60
2022-10-24T23:19:45.988Z,19.30
2022-10-24T23:22:34.457Z,22.93
2022-10-24T23:25:01.774Z,19.57
2022-10-24T23:27:36.473Z,17.37
2022-10-24T23:30:18.207Z,16.50
2022-10-24T23:32:46.169Z,17.10
2022-10-24T23:35:17.284Z,18.23
2022-10-24T23:37:52.582Z,16.10
2022-10-24T23:40:30.752Z,17.50
2022-10-24T23:42:58.267Z,14.13
2022-10-24T23:45:35.977Z,18.10
2022-10-24T23:48:18.593Z,18.63
2022-10-24T23:51:02.198Z,20.00
2022-10-24T23:53:55.005Z,14.53
2022-10-24T23:56:27.568Z,16.67
2022-10-24T23:58:55.319Z,16.93
